Time;durP1;ratioP1;P1;durP2;ratioP2;P2;SDS_P1;SDS_P2;PMS_P1;PMS_P2;Temp;Humidity;BMP_temperature;BMP_pressure;BME280_temperature;BME280_humidity;BME280_pressure;Samples;Min_cycle;Max_cycle;Signal;HPM_P1;HPM_P2
2024/04/19 00:00:21;;;;;;;14.88;13.38;;;;;;;;;;4957654;28;20096;-71
2024/04/19 00:02:47;;;;;;;16.38;14.82;;;;;;;;;;4990744;28;20533;-73
2024/04/19 00:05:13;;;;;;;13.32;12.00;;;;;;;;;;4973432;28;20046;-73
2024/04/19 00:07:38;;;;;;;16.45;14.95;;;;;;;;;;4974534;28;20047;-74
2024/04/19 00:10:04;;;;;;;12.82;11.63;;;;;;;;;;4991350;28;20050;-75
2024/04/19 00:12:31;;;;;;;13.48;12.27;;;;;;;;;;4965670;28;20039;-74
2024/04/19 00:14:57;;;;;;;11.52;10.48;;;;;;;;;;4991752;28;20515;-73
2024/04/19 00:17:23;;;;;;;11.63;10.63;;;;;;;;;;4958059;28;20058;-74
2024/04/19 00:19:49;;;;;;;13.43;12.13;;;;;;;;;;4974305;28;20577;-74
2024/04/19 00:22:15;;;;;;;8.65;7.90;;;;;;;;;;4984012;28;20058;-73
2024/04/19 00:24:41;;;;;;;10.82;9.93;;;;;;;;;;4973534;28;20053;-74
2024/04/19 00:27:07;;;;;;;8.32;7.63;;;;;;;;;;4992333;28;20129;-74
2024/04/19 00:29:45;;;;;;;8.85;8.10;;;;;;;;;;4991906;28;20108;-73
2024/04/19 00:32:11;;;;;;;10.43;9.52;;;;;;;;;;4990691;28;20601;-74
2024/04/19 00:34:37;;;;;;;7.18;6.68;;;;;;;;;;4972820;28;20046;-74
2024/04/19 00:37:03;;;;;;;8.40;7.78;;;;;;;;;;4958102;28;20065;-74
2024/04/19 00:39:28;;;;;;;7.53;6.93;;;;;;;;;;4973598;28;20419;-72
2024/04/19 00:41:54;;;;;;;10.45;9.65;;;;;;;;;;4968663;28;20062;-73
2024/04/19 00:44:20;;;;;;;7.03;6.53;;;;;;;;;;4971488;28;20065;-72
2024/04/19 00:46:47;;;;;;;7.97;7.28;;;;;;;;;;4973504;28;20566;-74
2024/04/19 00:49:32;;;;;;;7.13;6.53;;;;;;;;;;4973090;28;20507;-73
2024/04/19 00:51:58;;;;;;;7.35;6.65;;;;;;;;;;4990512;28;20045;-74
2024/04/19 00:54:24;;;;;;;8.63;7.82;;;;;;;;;;4947439;28;20042;-74
2024/04/19 00:56:50;;;;;;;5.10;4.70;;;;;;;;;;4956860;28;20121;-74
2024/04/19 00:59:15;;;;;;;5.93;5.53;;;;;;;;;;4957098;28;20535;-73
2024/04/19 01:01:41;;;;;;;7.35;6.78;;;;;;;;;;4973704;28;20133;-73
2024/04/19 01:04:07;;;;;;;10.60;9.80;;;;;;;;;;4990242;28;20062;-74
2024/04/19 01:06:33;;;;;;;7.20;6.50;;;;;;;;;;4990868;28;20054;-74
2024/04/19 01:08:59;;;;;;;8.23;7.45;;;;;;;;;;4973070;28;20046;-74
2024/04/19 01:11:28;;;;;;;7.68;7.10;;;;;;;;;;4972918;28;20522;-73
2024/04/19 01:13:54;;;;;;;9.05;8.15;;;;;;;;;;4971650;28;20061;-73
2024/04/19 01:16:19;;;;;;;8.48;7.75;;;;;;;;;;4957477;28;20049;-74
2024/04/19 01:18:51;;;;;;;8.55;7.75;;;;;;;;;;4984285;28;20499;-74
2024/04/19 01:21:17;;;;;;;6.15;5.65;;;;;;;;;;4990274;28;20037;-74
2024/04/19 01:23:43;;;;;;;8.05;7.35;;;;;;;;;;4948487;28;20050;-74
2024/04/19 01:26:09;;;;;;;9.48;8.77;;;;;;;;;;4992657;28;20041;-76
2024/04/19 01:28:35;;;;;;;8.60;7.90;;;;;;;;;;4990911;28;20137;-74
2024/04/19 01:31:00;;;;;;;10.23;7.97;;;;;;;;;;4990318;28;20034;-74
2024/04/19 01:33:26;;;;;;;7.82;7.07;;;;;;;;;;4987440;28;20042;-74
2024/04/19 01:35:52;;;;;;;9.68;8.88;;;;;;;;;;4990059;28;20061;-74
2024/04/19 01:38:38;;;;;;;7.60;6.90;;;;;;;;;;4988751;28;20044;-74
2024/04/19 01:41:04;;;;;;;8.52;7.75;;;;;;;;;;4995762;28;20077;-74
2024/04/19 01:43:30;;;;;;;8.77;8.02;;;;;;;;;;4971324;28;20066;-72
2024/04/19 01:45:56;;;;;;;4.28;3.90;;;;;;;;;;4995126;28;20050;-73
2024/04/19 01:48:22;;;;;;;9.32;8.63;;;;;;;;;;4961373;28;20080;-72
2024/04/19 01:50:48;;;;;;;9.98;9.02;;;;;;;;;;4996667;28;20117;-74
2024/04/19 01:53:14;;;;;;;5.80;5.43;;;;;;;;;;4994925;28;20050;-73
2024/04/19 01:55:39;;;;;;;9.38;8.48;;;;;;;;;;4997209;28;20030;-73
2024/04/19 01:58:05;;;;;;;7.97;7.30;;;;;;;;;;4961587;28;20105;-75
2024/04/19 02:00:31;;;;;;;6.25;5.65;;;;;;;;;;4957186;28;20058;-75
2024/04/19 02:02:57;;;;;;;8.80;8.00;;;;;;;;;;4971837;28;20128;-74
2024/04/19 02:05:23;;;;;;;7.47;6.78;;;;;;;;;;4989469;28;20049;-73
2024/04/19 02:07:48;;;;;;;4.65;4.25;;;;;;;;;;4973215;28;20064;-73
2024/04/19 02:10:14;;;;;;;6.07;5.47;;;;;;;;;;4990156;28;20042;-72
2024/04/19 02:12:40;;;;;;;6.07;5.47;;;;;;;;;;4984263;28;20073;-73
2024/04/19 02:15:06;;;;;;;5.75;5.28;;;;;;;;;;4989843;28;20034;-74
2024/04/19 02:17:33;;;;;;;6.05;5.53;;;;;;;;;;4974972;28;20645;-73
2024/04/19 02:19:58;;;;;;;8.02;6.88;;;;;;;;;;4992765;28;20082;-75
2024/04/19 02:22:24;;;;;;;7.20;6.50;;;;;;;;;;4993587;28;20061;-73
2024/04/19 02:24:50;;;;;;;8.20;7.43;;;;;;;;;;4992080;28;20562;-73
2024/04/19 02:32:45;;;;;;;8.32;7.53;;;;;;;;;;4979663;28;20581;-72
2024/04/19 02:35:10;;;;;;;6.72;6.13;;;;;;;;;;4972477;28;20039;-73
2024/04/19 02:37:36;;;;;;;6.57;5.97;;;;;;;;;;4988874;28;20531;-74
2024/04/19 02:40:02;;;;;;;7.70;6.85;;;;;;;;;;4973632;28;20040;-73
2024/04/19 02:42:28;;;;;;;6.28;5.68;;;;;;;;;;4976108;28;20052;-72
2024/04/19 02:44:54;;;;;;;9.30;8.50;;;;;;;;;;4974209;28;20050;-72
2024/04/19 02:47:20;;;;;;;6.78;6.18;;;;;;;;;;4974449;28;20338;-72
2024/04/19 02:49:46;;;;;;;7.07;6.47;;;;;;;;;;4957155;28;20046;-72
2024/04/19 02:52:12;;;;;;;6.47;5.95;;;;;;;;;;4950361;28;20430;-73
2024/04/19 02:54:38;;;;;;;6.43;5.30;;;;;;;;;;4958316;28;20050;-73
2024/04/19 02:57:04;;;;;;;6.03;5.63;;;;;;;;;;4971530;28;20050;-73
2024/04/19 02:59:30;;;;;;;6.72;6.22;;;;;;;;;;4969300;28;20610;-73
2024/04/19 03:01:55;;;;;;;6.75;6.22;;;;;;;;;;4955205;28;20144;-73
2024/04/19 03:04:35;;;;;;;8.48;7.88;;;;;;;;;;4985575;28;20587;-74
2024/04/19 03:07:01;;;;;;;9.25;8.52;;;;;;;;;;4990177;28;20046;-73
2024/04/19 03:09:26;;;;;;;7.10;6.60;;;;;;;;;;4971742;28;20042;-73
2024/04/19 03:11:52;;;;;;;8.15;7.45;;;;;;;;;;4989123;28;20422;-72
2024/04/19 03:14:18;;;;;;;8.05;7.45;;;;;;;;;;4987161;28;20059;-72
2024/04/19 03:16:44;;;;;;;8.70;7.90;;;;;;;;;;4971083;28;20093;-70
2024/04/19 03:19:10;;;;;;;7.88;7.18;;;;;;;;;;4989194;28;20050;-70
2024/04/19 03:21:36;;;;;;;8.70;7.95;;;;;;;;;;4979812;28;20132;-72
2024/04/19 03:24:02;;;;;;;8.93;8.10;;;;;;;;;;4987620;28;20046;-71
2024/04/19 03:26:28;;;;;;;10.75;9.65;;;;;;;;;;4988741;28;20513;-72
2024/04/19 03:28:53;;;;;;;8.63;7.93;;;;;;;;;;4988142;28;20053;-72
2024/04/19 03:31:19;;;;;;;12.32;11.32;;;;;;;;;;4987665;28;20036;-72
2024/04/19 03:33:45;;;;;;;9.38;8.50;;;;;;;;;;4974512;28;20042;-72
2024/04/19 03:36:11;;;;;;;11.45;8.82;;;;;;;;;;4986275;28;20537;-73
2024/04/19 03:38:37;;;;;;;11.35;10.32;;;;;;;;;;4981667;28;20046;-73
2024/04/19 03:41:03;;;;;;;7.30;6.70;;;;;;;;;;4952452;28;20041;-73
2024/04/19 03:43:40;;;;;;;9.57;8.60;;;;;;;;;;4990755;28;20062;-73
2024/04/19 03:46:06;;;;;;;9.25;8.35;;;;;;;;;;4963232;28;20034;-73
2024/04/19 03:48:32;;;;;;;9.13;8.43;;;;;;;;;;4991445;28;20052;-73
2024/04/19 03:50:59;;;;;;;6.18;5.68;;;;;;;;;;4991596;28;20092;-73
2024/04/19 03:53:25;;;;;;;7.45;6.85;;;;;;;;;;4983812;28;20046;-74
2024/04/19 03:55:50;;;;;;;8.90;8.20;;;;;;;;;;4990820;28;20061;-73
2024/04/19 03:58:16;;;;;;;8.48;7.78;;;;;;;;;;4973841;28;20129;-73
2024/04/19 04:00:42;;;;;;;8.13;7.47;;;;;;;;;;4992193;28;20058;-72
2024/04/19 04:03:08;;;;;;;8.02;7.25;;;;;;;;;;4990544;28;20081;-73
2024/04/19 04:05:39;;;;;;;8.02;7.32;;;;;;;;;;4987122;28;20686;-73
2024/04/19 04:08:05;;;;;;;11.32;10.15;;;;;;;;;;4989232;28;20053;-74
2024/04/19 04:10:31;;;;;;;5.95;5.45;;;;;;;;;;4990915;28;20515;-74
2024/04/19 04:12:57;;;;;;;13.23;11.93;;;;;;;;;;4962134;28;20061;-72
2024/04/19 04:15:23;;;;;;;11.38;10.38;;;;;;;;;;4973621;28;20113;-72
2024/04/19 04:17:50;;;;;;;10.10;9.13;;;;;;;;;;4990762;28;20138;-73
2024/04/19 04:20:15;;;;;;;10.15;9.10;;;;;;;;;;4975791;28;20042;-81
2024/04/19 04:22:42;;;;;;;10.48;9.18;;;;;;;;;;5002217;28;20185;-80
2024/04/19 04:25:08;;;;;;;13.60;12.30;;;;;;;;;;5002651;28;20038;-83
2024/04/19 04:27:34;;;;;;;7.70;7.00;;;;;;;;;;4992854;28;20050;-81
2024/04/19 04:30:03;;;;;;;16.92;15.40;;;;;;;;;;4986622;28;20026;-83
2024/04/19 04:32:31;;;;;;;8.88;7.28;;;;;;;;;;4985343;28;20035;-81
2024/04/19 04:34:56;;;;;;;10.48;9.07;;;;;;;;;;4975101;28;20042;-82
2024/04/19 04:37:22;;;;;;;12.07;10.90;;;;;;;;;;5015153;28;20053;-78
2024/04/19 04:40:22;;;;;;;12.20;11.00;;;;;;;;;;4969736;28;20042;-81
2024/04/19 04:42:48;;;;;;;12.38;11.05;;;;;;;;;;4950785;28;20503;-82
2024/04/19 04:45:16;;;;;;;10.10;9.10;;;;;;;;;;4977785;28;20422;-83
2024/04/19 04:47:42;;;;;;;12.10;10.38;;;;;;;;;;5006788;28;20098;-83
2024/04/19 04:50:07;;;;;;;11.95;10.65;;;;;;;;;;4982058;28;20062;-81
2024/04/19 04:52:33;;;;;;;13.63;10.88;;;;;;;;;;4993132;28;20046;-81
2024/04/19 04:55:39;;;;;;;17.30;12.95;;;;;;;;;;5002927;28;20030;-84
2024/04/19 04:58:05;;;;;;;13.52;12.02;;;;;;;;;;5000020;28;20046;-81
2024/04/19 05:00:31;;;;;;;16.10;13.77;;;;;;;;;;4991652;28;20030;-80
2024/04/19 05:02:57;;;;;;;16.85;12.65;;;;;;;;;;4993454;28;20074;-79
2024/04/19 05:05:24;;;;;;;21.33;14.20;;;;;;;;;;5008956;28;20014;-81
2024/04/19 05:07:50;;;;;;;17.60;13.93;;;;;;;;;;4985961;28;20118;-83
2024/04/19 05:10:16;;;;;;;31.98;19.10;;;;;;;;;;5012366;28;20076;-82
2024/04/19 05:12:43;;;;;;;29.98;16.42;;;;;;;;;;5010043;28;20715;-83
2024/04/19 05:15:28;;;;;;;25.35;15.95;;;;;;;;;;4979594;28;20042;-81
2024/04/19 05:17:54;;;;;;;22.52;15.23;;;;;;;;;;5009304;28;20077;-80
2024/04/19 05:20:21;;;;;;;33.85;22.15;;;;;;;;;;5149006;22;20024;-82
2024/04/19 05:22:47;;;;;;;19.55;12.77;;;;;;;;;;5702308;22;20024;-79
2024/04/19 05:27:53;;;;;;;43.58;23.83;;;;;;;;;;5173318;23;20053;-84
2024/04/19 05:30:19;;;;;;;24.65;12.57;;;;;;;;;;5015626;28;20045;-81
2024/04/19 05:32:45;;;;;;;36.97;18.42;;;;;;;;;;5021930;28;20068;-83
2024/04/19 05:35:11;;;;;;;20.88;12.18;;;;;;;;;;5027677;28;20046;-83
2024/04/19 05:37:37;;;;;;;21.55;12.25;;;;;;;;;;5007223;28;20060;-88
2024/04/19 05:40:03;;;;;;;26.83;14.13;;;;;;;;;;4996949;28;20046;-76
2024/04/19 05:42:29;;;;;;;27.65;13.32;;;;;;;;;;4984399;28;20046;-79
2024/04/19 05:44:55;;;;;;;23.45;11.73;;;;;;;;;;4990383;28;20052;-79
2024/04/19 05:47:21;;;;;;;24.98;12.95;;;;;;;;;;4975386;28;20526;-78
2024/04/19 05:49:46;;;;;;;30.30;14.63;;;;;;;;;;5009787;28;20495;-79
2024/04/19 05:52:12;;;;;;;40.03;19.48;;;;;;;;;;5007591;28;20073;-78
2024/04/19 05:54:38;;;;;;;23.33;13.50;;;;;;;;;;5008495;28;20041;-80
2024/04/19 05:57:04;;;;;;;32.45;13.98;;;;;;;;;;5009317;28;20037;-78
2024/04/19 05:59:30;;;;;;;31.88;14.90;;;;;;;;;;4989519;28;20097;-77
2024/04/19 06:01:56;;;;;;;31.85;16.33;;;;;;;;;;5007481;28;20507;-77
2024/04/19 06:04:34;;;;;;;43.70;20.50;;;;;;;;;;4960421;28;20050;-78
2024/04/19 06:07:01;;;;;;;41.13;21.10;;;;;;;;;;4991162;28;20100;-77
2024/04/19 06:09:27;;;;;;;30.10;17.38;;;;;;;;;;4991771;28;20128;-77
2024/04/19 06:11:53;;;;;;;35.90;17.98;;;;;;;;;;5001157;28;20152;-78
2024/04/19 06:14:19;;;;;;;23.20;12.63;;;;;;;;;;5007618;28;20051;-76
2024/04/19 06:16:45;;;;;;;17.25;11.63;;;;;;;;;;4976182;28;20088;-79
2024/04/19 06:19:10;;;;;;;41.33;19.75;;;;;;;;;;5011388;28;20046;-77
2024/04/19 06:21:59;;;;;;;33.65;18.05;;;;;;;;;;4997571;28;20041;-80
2024/04/19 06:24:25;;;;;;;29.60;16.55;;;;;;;;;;4975841;28;20030;-83
2024/04/19 06:26:51;;;;;;;41.50;20.50;;;;;;;;;;4963608;28;20046;-82
2024/04/19 06:29:43;;;;;;;24.02;16.30;;;;;;;;;;4992377;28;20147;-78
2024/04/19 06:32:31;;;;;;;33.40;20.70;;;;;;;;;;4992351;28;20038;-82
2024/04/19 06:35:35;;;;;;;24.35;14.65;;;;;;;;;;4995879;28;20049;-82
2024/04/19 06:38:02;;;;;;;25.98;15.45;;;;;;;;;;4992739;28;20022;-85
2024/04/19 06:43:20;;;;;;;33.63;19.23;;;;;;;;;;4997963;28;20104;-80
2024/04/19 06:45:46;;;;;;;26.25;18.75;;;;;;;;;;5006651;28;20101;-76
2024/04/19 06:48:11;;;;;;;34.65;19.63;;;;;;;;;;5028899;28;20022;-79
2024/04/19 06:50:37;;;;;;;23.10;17.38;;;;;;;;;;5031495;28;20038;-78
2024/04/19 06:53:03;;;;;;;22.30;14.38;;;;;;;;;;4996384;28;20046;-76
2024/04/19 06:55:29;;;;;;;31.52;20.90;;;;;;;;;;5030726;28;20049;-78
2024/04/19 06:57:58;;;;;;;11.73;10.45;;;;;;;;;;4998719;28;20034;-78
2024/04/19 07:00:24;;;;;;;18.67;13.88;;;;;;;;;;5010523;28;20042;-76
2024/04/19 07:02:49;;;;;;;24.45;16.77;;;;;;;;;;5001062;28;20046;-76
2024/04/19 07:05:15;;;;;;;24.67;16.80;;;;;;;;;;4989722;28;20062;-78
2024/04/19 07:07:41;;;;;;;22.63;17.90;;;;;;;;;;4978528;28;20596;-76
2024/04/19 07:10:07;;;;;;;20.80;12.85;;;;;;;;;;4995073;28;20070;-80
2024/04/19 07:12:33;;;;;;;19.88;14.07;;;;;;;;;;5005043;28;20073;-81
2024/04/19 07:14:59;;;;;;;16.77;13.57;;;;;;;;;;5005768;28;20043;-79
2024/04/19 07:17:39;;;;;;;18.85;16.15;;;;;;;;;;4963097;28;20043;-83
2024/04/19 07:20:45;;;;;;;15.93;13.75;;;;;;;;;;4998430;28;20022;-89
2024/04/19 07:23:36;;;;;;;16.00;13.57;;;;;;;;;;4996137;23;20059;-88
2024/04/19 07:26:30;;;;;;;11.57;10.38;;;;;;;;;;5009948;28;20018;-89
2024/04/19 07:28:59;;;;;;;18.27;15.25;;;;;;;;;;4999004;28;20030;-88
2024/04/19 07:31:25;;;;;;;19.23;11.95;;;;;;;;;;4947306;28;20034;-84
2024/04/19 07:33:52;;;;;;;10.85;9.95;;;;;;;;;;4936855;28;20073;-82
2024/04/19 07:36:21;;;;;;;13.55;12.13;;;;;;;;;;4945383;28;20038;-82
2024/04/19 07:38:48;;;;;;;12.07;10.82;;;;;;;;;;4966692;28;20054;-81
2024/04/19 07:41:21;;;;;;;15.82;11.98;;;;;;;;;;4969261;28;20049;-81
2024/04/19 07:43:47;;;;;;;11.07;10.00;;;;;;;;;;4947156;28;20060;-82
2024/04/19 07:46:13;;;;;;;11.45;10.35;;;;;;;;;;4987396;28;20517;-80
2024/04/19 07:48:39;;;;;;;12.68;11.45;;;;;;;;;;4957912;28;20047;-76
2024/04/19 07:51:05;;;;;;;11.25;9.80;;;;;;;;;;4987473;28;20101;-82
2024/04/19 07:53:31;;;;;;;16.15;11.77;;;;;;;;;;4987916;28;20054;-82
2024/04/19 07:56:03;;;;;;;11.50;10.50;;;;;;;;;;4969233;28;20106;-82
2024/04/19 07:58:33;;;;;;;10.32;9.43;;;;;;;;;;4964870;28;20424;-81
2024/04/19 08:00:59;;;;;;;10.75;9.80;;;;;;;;;;4982260;28;20054;-81
2024/04/19 08:03:25;;;;;;;11.98;10.75;;;;;;;;;;4921496;29;20051;-82
2024/04/19 08:06:11;;;;;;;11.38;10.43;;;;;;;;;;4957964;28;20031;-81
2024/04/19 08:08:38;;;;;;;13.10;11.57;;;;;;;;;;4931435;28;20046;-76
2024/04/19 08:11:03;;;;;;;18.13;12.45;;;;;;;;;;4941494;28;20042;-75
2024/04/19 08:13:29;;;;;;;12.73;9.32;;;;;;;;;;4942669;28;20055;-77
2024/04/19 08:15:55;;;;;;;6.78;6.15;;;;;;;;;;4963555;28;20092;-76
2024/04/19 08:18:21;;;;;;;3.25;2.95;;;;;;;;;;4940896;28;20130;-77
2024/04/19 08:20:47;;;;;;;3.47;2.70;;;;;;;;;;4965701;28;20039;-78
2024/04/19 08:23:12;;;;;;;3.28;3.00;;;;;;;;;;4959469;28;20059;-76
2024/04/19 08:25:38;;;;;;;3.85;2.80;;;;;;;;;;4966758;28;20043;-78
2024/04/19 08:28:04;;;;;;;2.67;2.42;;;;;;;;;;4960778;28;20522;-77
2024/04/19 08:30:31;;;;;;;3.20;2.33;;;;;;;;;;4966309;28;20042;-80
2024/04/19 08:33:23;;;;;;;2.40;2.20;;;;;;;;;;4944696;28;20062;-79
2024/04/19 08:35:53;;;;;;;2.03;1.92;;;;;;;;;;4929886;28;20046;-80
2024/04/19 08:38:19;;;;;;;1.70;1.70;;;;;;;;;;4949913;29;20043;-82
2024/04/19 08:40:48;;;;;;;1.55;1.55;;;;;;;;;;4933977;28;20070;-81
2024/04/19 08:43:17;;;;;;;2.58;1.70;;;;;;;;;;4956691;28;20084;-83
2024/04/19 08:45:43;;;;;;;3.15;1.52;;;;;;;;;;4917313;28;20043;-82
2024/04/19 08:48:09;;;;;;;2.63;1.83;;;;;;;;;;4904735;29;20046;-81
2024/04/19 08:50:34;;;;;;;1.85;1.75;;;;;;;;;;4968225;28;20165;-81
2024/04/19 08:53:00;;;;;;;2.58;2.03;;;;;;;;;;4963195;28;20423;-83
2024/04/19 08:55:26;;;;;;;1.83;1.52;;;;;;;;;;4981110;28;20080;-80
2024/04/19 08:57:52;;;;;;;5.18;2.60;;;;;;;;;;4953101;29;20042;-84
2024/04/19 09:00:18;;;;;;;1.80;1.70;;;;;;;;;;4967187;28;20054;-81
2024/04/19 09:02:44;;;;;;;2.22;1.75;;;;;;;;;;4985366;28;20053;-80
2024/04/19 09:05:09;;;;;;;1.80;1.70;;;;;;;;;;4970803;28;20058;-82
2024/04/19 09:07:35;;;;;;;1.70;1.60;;;;;;;;;;4955835;28;20062;-82
2024/04/19 09:10:01;;;;;;;2.15;1.77;;;;;;;;;;4969505;28;20035;-82
2024/04/19 09:12:29;;;;;;;1.85;1.67;;;;;;;;;;4971330;28;20054;-78
2024/04/19 09:14:55;;;;;;;1.55;1.50;;;;;;;;;;4960720;28;20062;-78
2024/04/19 09:17:21;;;;;;;1.73;1.63;;;;;;;;;;4958622;28;20039;-79
2024/04/19 09:19:47;;;;;;;1.73;1.65;;;;;;;;;;4942697;28;20074;-76
2024/04/19 09:22:12;;;;;;;4.07;1.77;;;;;;;;;;4966126;28;20523;-77
2024/04/19 09:24:40;;;;;;;1.67;1.52;;;;;;;;;;4944868;28;20054;-77
2024/04/19 09:27:06;;;;;;;1.58;1.48;;;;;;;;;;4954204;28;20593;-78
2024/04/19 09:29:32;;;;;;;1.70;1.60;;;;;;;;;;4960114;28;20039;-78
2024/04/19 09:31:58;;;;;;;2.28;1.70;;;;;;;;;;4951009;28;20074;-78
2024/04/19 09:34:23;;;;;;;1.70;1.60;;;;;;;;;;4961249;28;20438;-76
2024/04/19 09:36:50;;;;;;;1.80;1.42;;;;;;;;;;4965295;28;20133;-78
2024/04/19 09:39:17;;;;;;;1.75;1.50;;;;;;;;;;4949715;28;20047;-78
2024/04/19 09:41:43;;;;;;;3.25;1.38;;;;;;;;;;4950832;28;20027;-78
2024/04/19 09:44:09;;;;;;;1.40;1.40;;;;;;;;;;4949265;29;20425;-79
2024/04/19 09:46:35;;;;;;;3.10;1.48;;;;;;;;;;4962538;28;20073;-77
2024/04/19 09:49:01;;;;;;;1.45;1.35;;;;;;;;;;4964996;28;20129;-79
2024/04/19 09:51:33;;;;;;;1.85;1.35;;;;;;;;;;4965070;28;20046;-79
2024/04/19 09:53:59;;;;;;;1.83;1.33;;;;;;;;;;4948532;29;20110;-79
2024/04/19 09:56:28;;;;;;;1.10;1.05;;;;;;;;;;4949647;28;20043;-79
2024/04/19 09:58:54;;;;;;;0.95;0.90;;;;;;;;;;4967409;28;20093;-77
2024/04/19 10:01:20;;;;;;;1.13;1.00;;;;;;;;;;4945391;28;20046;-79
2024/04/19 10:03:46;;;;;;;1.17;0.95;;;;;;;;;;4955591;28;20083;-79
2024/04/19 10:06:12;;;;;;;0.70;0.70;;;;;;;;;;4949549;29;20424;-79
2024/04/19 10:08:38;;;;;;;2.38;0.85;;;;;;;;;;4963228;28;20538;-78
2024/04/19 10:11:04;;;;;;;3.05;0.70;;;;;;;;;;4961809;28;20088;-77
2024/04/19 10:13:30;;;;;;;1.10;1.00;;;;;;;;;;4928371;28;20145;-79
2024/04/19 10:15:56;;;;;;;0.93;0.93;;;;;;;;;;4965360;28;20038;-79
2024/04/19 10:18:22;;;;;;;1.40;1.30;;;;;;;;;;4968823;28;20039;-78
2024/04/19 10:20:48;;;;;;;1.45;1.30;;;;;;;;;;4954183;28;20069;-79
2024/04/19 10:23:15;;;;;;;0.88;0.88;;;;;;;;;;4938557;29;20432;-79
2024/04/19 10:25:41;;;;;;;0.85;0.85;;;;;;;;;;4933810;29;20747;-78
2024/04/19 10:28:07;;;;;;;1.00;1.00;;;;;;;;;;4950906;29;20057;-79
2024/04/19 10:30:33;;;;;;;1.25;1.13;;;;;;;;;;4952096;29;20053;-78
2024/04/19 10:32:59;;;;;;;0.70;0.70;;;;;;;;;;4951729;29;20545;-80
2024/04/19 10:35:24;;;;;;;1.77;1.10;;;;;;;;;;4956313;29;20516;-79
2024/04/19 10:37:50;;;;;;;1.00;1.00;;;;;;;;;;4944062;28;20042;-80
2024/04/19 10:40:16;;;;;;;0.80;0.80;;;;;;;;;;4948464;29;20078;-80
2024/04/19 10:42:45;;;;;;;0.77;0.77;;;;;;;;;;4942576;29;20039;-80
2024/04/19 10:45:13;;;;;;;0.80;0.80;;;;;;;;;;4948145;29;20138;-79
2024/04/19 10:47:41;;;;;;;0.90;0.90;;;;;;;;;;4948439;29;20081;-80
2024/04/19 10:50:07;;;;;;;1.10;1.00;;;;;;;;;;4946817;29;20428;-81
2024/04/19 10:52:34;;;;;;;3.47;0.70;;;;;;;;;;4950175;29;20039;-79
2024/04/19 10:54:59;;;;;;;1.58;0.73;;;;;;;;;;4949012;29;20070;-80
2024/04/19 10:57:28;;;;;;;1.60;1.50;;;;;;;;;;4944514;29;20039;-79
2024/04/19 10:59:54;;;;;;;1.35;1.00;;;;;;;;;;4944461;28;20137;-79
2024/04/19 11:02:21;;;;;;;3.67;1.27;;;;;;;;;;4936604;29;20063;-78
2024/04/19 11:04:48;;;;;;;1.45;1.35;;;;;;;;;;4947460;29;20074;-80
2024/04/19 11:07:13;;;;;;;1.02;1.02;;;;;;;;;;4952077;29;20047;-80
2024/04/19 11:09:39;;;;;;;2.05;1.00;;;;;;;;;;4950850;29;20043;-79
2024/04/19 11:12:05;;;;;;;0.98;0.93;;;;;;;;;;4961810;28;20138;-79
2024/04/19 11:14:31;;;;;;;1.30;1.02;;;;;;;;;;4947582;29;20062;-80
2024/04/19 11:16:58;;;;;;;1.65;1.13;;;;;;;;;;4941656;29;20042;-81
2024/04/19 11:19:24;;;;;;;1.20;1.08;;;;;;;;;;4941519;29;20201;-79
2024/04/19 11:21:50;;;;;;;1.20;1.08;;;;;;;;;;4943283;29;20043;-80
2024/04/19 11:24:18;;;;;;;0.85;0.85;;;;;;;;;;4942633;29;20091;-81
2024/04/19 11:26:44;;;;;;;1.10;1.10;;;;;;;;;;4919130;29;20102;-80
2024/04/19 11:29:10;;;;;;;1.77;0.90;;;;;;;;;;4944687;29;20051;-81
2024/04/19 11:31:37;;;;;;;0.70;0.70;;;;;;;;;;4948566;29;20046;-81
2024/04/19 11:34:02;;;;;;;0.90;0.80;;;;;;;;;;4946583;29;20138;-80
2024/04/19 11:36:29;;;;;;;9.30;0.88;;;;;;;;;;4924163;29;20436;-80
2024/04/19 11:38:58;;;;;;;0.90;0.90;;;;;;;;;;4936857;29;20048;-81
2024/04/19 11:41:25;;;;;;;1.03;0.93;;;;;;;;;;4948915;29;20229;-80
2024/04/19 11:43:51;;;;;;;1.67;1.10;;;;;;;;;;4955335;29;20839;-82
2024/04/19 11:46:27;;;;;;;2.15;0.90;;;;;;;;;;4955014;28;20051;-79
2024/04/19 11:48:53;;;;;;;1.45;1.10;;;;;;;;;;4961560;28;20040;-81
2024/04/19 11:51:22;;;;;;;1.75;1.00;;;;;;;;;;4958731;29;20043;-81
2024/04/19 11:53:48;;;;;;;2.50;1.52;;;;;;;;;;4949389;28;20058;-81
2024/04/19 11:56:13;;;;;;;1.08;1.00;;;;;;;;;;4961571;29;20043;-81
2024/04/19 11:58:39;;;;;;;0.90;0.90;;;;;;;;;;4946185;29;20043;-81
2024/04/19 12:01:05;;;;;;;1.23;1.10;;;;;;;;;;4960964;29;20039;-82
2024/04/19 12:03:33;;;;;;;1.50;1.40;;;;;;;;;;4951119;29;20051;-80
2024/04/19 12:05:59;;;;;;;1.15;1.15;;;;;;;;;;4947738;29;20050;-80
2024/04/19 12:08:24;;;;;;;1.30;1.30;;;;;;;;;;4955258;29;20039;-80
2024/04/19 12:10:50;;;;;;;1.10;1.10;;;;;;;;;;4951158;29;20641;-82
2024/04/19 12:13:16;;;;;;;1.85;1.15;;;;;;;;;;4948343;29;20060;-82
2024/04/19 12:15:42;;;;;;;2.28;1.30;;;;;;;;;;4952530;29;20054;-81
2024/04/19 12:18:08;;;;;;;1.13;1.13;;;;;;;;;;4928484;29;20087;-83
2024/04/19 12:20:33;;;;;;;1.40;1.30;;;;;;;;;;4953002;29;20067;-81
2024/04/19 12:22:59;;;;;;;1.30;1.30;;;;;;;;;;4945782;29;20097;-81
2024/04/19 12:25:25;;;;;;;1.40;1.40;;;;;;;;;;4950734;29;20059;-81
2024/04/19 12:27:51;;;;;;;1.67;1.58;;;;;;;;;;4945264;29;20063;-82
2024/04/19 12:30:17;;;;;;;1.65;1.55;;;;;;;;;;4944368;29;20110;-81
2024/04/19 12:32:42;;;;;;;1.38;1.20;;;;;;;;;;4949549;29;20083;-82
2024/04/19 12:35:12;;;;;;;1.27;1.27;;;;;;;;;;4949043;29;20035;-81
2024/04/19 12:37:37;;;;;;;1.25;1.17;;;;;;;;;;4947423;29;20082;-81
2024/04/19 12:40:06;;;;;;;1.40;1.40;;;;;;;;;;4946408;29;20118;-82
2024/04/19 12:42:34;;;;;;;8.57;2.13;;;;;;;;;;4948650;29;20066;-82
2024/04/19 12:45:00;;;;;;;1.20;1.20;;;;;;;;;;4953257;29;20036;-81
2024/04/19 12:47:26;;;;;;;2.95;1.27;;;;;;;;;;4947089;29;20071;-80
2024/04/19 12:49:52;;;;;;;1.10;1.10;;;;;;;;;;4957435;29;20531;-84
2024/04/19 12:52:18;;;;;;;1.33;1.27;;;;;;;;;;4949905;29;20043;-82
2024/04/19 12:54:44;;;;;;;1.73;1.38;;;;;;;;;;4949122;29;20079;-80
2024/04/19 12:57:10;;;;;;;1.52;1.40;;;;;;;;;;4967418;28;20043;-81
2024/04/19 12:59:36;;;;;;;4.93;1.20;;;;;;;;;;4945473;29;20051;-83
2024/04/19 13:02:02;;;;;;;1.20;1.20;;;;;;;;;;4938928;29;20028;-83
2024/04/19 13:04:29;;;;;;;1.42;1.40;;;;;;;;;;4942610;28;20632;-82
2024/04/19 13:06:55;;;;;;;1.52;1.52;;;;;;;;;;4954609;29;20031;-83
2024/04/19 13:09:21;;;;;;;3.85;1.48;;;;;;;;;;4949639;29;20047;-82
2024/04/19 13:11:46;;;;;;;1.48;1.30;;;;;;;;;;4956878;29;20049;-81
2024/04/19 13:14:12;;;;;;;1.20;1.20;;;;;;;;;;4957471;29;20070;-82
2024/04/19 13:16:38;;;;;;;2.08;1.15;;;;;;;;;;4958233;29;20043;-81
2024/04/19 13:19:04;;;;;;;1.20;1.20;;;;;;;;;;4955099;29;20645;-79
2024/04/19 13:21:31;;;;;;;4.80;1.20;;;;;;;;;;4942752;29;20051;-83
2024/04/19 13:23:57;;;;;;;1.63;1.52;;;;;;;;;;4954420;29;20062;-84
2024/04/19 13:26:24;;;;;;;1.50;1.40;;;;;;;;;;4963235;28;20420;-79
2024/04/19 13:28:54;;;;;;;1.50;1.40;;;;;;;;;;4963200;29;20050;-82
2024/04/19 13:31:21;;;;;;;7.03;1.10;;;;;;;;;;4953488;29;20043;-81
2024/04/19 13:33:46;;;;;;;0.98;0.98;;;;;;;;;;4937559;29;20610;-80
2024/04/19 13:36:17;;;;;;;0.90;0.90;;;;;;;;;;4954638;29;20051;-83
2024/04/19 13:38:42;;;;;;;1.20;1.10;;;;;;;;;;4983488;28;20066;-78
2024/04/19 13:41:08;;;;;;;0.70;0.70;;;;;;;;;;4971510;29;20050;-81
2024/04/19 13:43:34;;;;;;;1.77;0.90;;;;;;;;;;4969205;29;20027;-82
2024/04/19 13:46:00;;;;;;;2.67;0.75;;;;;;;;;;4965271;29;20050;-82
2024/04/19 13:48:36;;;;;;;0.93;0.82;;;;;;;;;;4961798;29;20048;-80
2024/04/19 13:51:08;;;;;;;0.82;0.82;;;;;;;;;;4962211;29;20036;-82
2024/04/19 13:53:40;;;;;;;2.13;0.90;;;;;;;;;;4967088;29;20146;-81
2024/04/19 13:56:13;;;;;;;0.80;0.80;;;;;;;;;;4956162;29;20098;-82
2024/04/19 13:58:39;;;;;;;0.98;0.98;;;;;;;;;;4957940;29;20036;-81
2024/04/19 14:01:06;;;;;;;0.75;0.75;;;;;;;;;;4954923;29;20043;-83
2024/04/19 14:03:32;;;;;;;0.82;0.82;;;;;;;;;;4952698;29;20047;-81
2024/04/19 14:05:59;;;;;;;3.50;0.82;;;;;;;;;;4946757;29;20047;-82
2024/04/19 14:08:25;;;;;;;0.90;0.90;;;;;;;;;;4949596;29;20044;-82
2024/04/19 14:10:51;;;;;;;1.73;1.00;;;;;;;;;;4943221;29;20035;-82
2024/04/19 14:13:17;;;;;;;0.80;0.80;;;;;;;;;;4931424;29;20063;-81
2024/04/19 14:15:43;;;;;;;0.93;0.93;;;;;;;;;;4967471;28;20067;-81
2024/04/19 14:18:09;;;;;;;1.33;1.00;;;;;;;;;;4950413;29;20043;-81
2024/04/19 14:20:35;;;;;;;4.03;1.10;;;;;;;;;;4952079;29;20044;-81
2024/04/19 14:23:01;;;;;;;2.63;1.00;;;;;;;;;;4955899;28;20059;-84
2024/04/19 14:25:27;;;;;;;0.80;0.80;;;;;;;;;;4961202;28;20045;-82
2024/04/19 14:27:52;;;;;;;1.52;1.42;;;;;;;;;;4974415;28;20043;-82
2024/04/19 14:30:18;;;;;;;1.00;1.00;;;;;;;;;;4959282;28;20043;-82
2024/04/19 14:32:44;;;;;;;1.10;1.10;;;;;;;;;;4973936;28;20041;-83
2024/04/19 14:35:10;;;;;;;2.15;1.35;;;;;;;;;;4981043;28;20055;-82
2024/04/19 14:37:36;;;;;;;1.20;1.20;;;;;;;;;;4985369;28;20054;-84
2024/04/19 14:40:02;;;;;;;1.02;1.02;;;;;;;;;;4970484;28;20027;-80
2024/04/19 14:42:31;;;;;;;0.80;0.80;;;;;;;;;;4986588;28;20026;-80
2024/04/19 14:44:57;;;;;;;0.80;0.80;;;;;;;;;;4970176;28;20031;-84
2024/04/19 14:47:23;;;;;;;0.98;0.98;;;;;;;;;;4962273;28;20051;-83